createdAt,value
2022-11-28T00:00:42.603Z,7.93
2022-11-28T00:05:47.205Z,8.87
2022-11-28T00:10:50.473Z,8.40
2022-11-28T00:15:57.934Z,8.10
2022-11-28T00:21:01.795Z,9.73
2022-11-28T00:26:06.884Z,9.83
2022-11-28T00:31:15.003Z,9.70
2022-11-28T00:36:21.074Z,10.17
2022-11-28T00:41:26.086Z,10.30
2022-11-28T00:46:31.906Z,10.27
2022-11-28T00:51:36.110Z,10.43
2022-11-28T00:56:40.973Z,9.97
2022-11-28T01:01:45.517Z,10.63
2022-11-28T01:06:49.978Z,10.03
2022-11-28T01:11:54.576Z,8.80
2022-11-28T01:16:58.960Z,9.37
2022-11-28T01:22:02.003Z,9.73
2022-11-28T01:27:04.933Z,8.97
2022-11-28T01:32:09.253Z,7.30
2022-11-28T01:37:12.427Z,6.17
2022-11-28T01:42:18.184Z,7.30
2022-11-28T01:47:27.129Z,6.90
2022-11-28T01:52:34.949Z,8.23
2022-11-28T01:57:37.961Z,7.53
2022-11-28T02:02:45.886Z,7.97
2022-11-28T02:07:49.890Z,7.80
2022-11-28T02:13:08.842Z,7.10
2022-11-28T02:18:27.364Z,6.93
2022-11-28T02:23:45.266Z,6.07
2022-11-28T02:29:13.992Z,6.07
2022-11-28T02:34:29.880Z,7.00
2022-11-28T02:39:42.675Z,5.60
2022-11-28T02:44:52.820Z,5.47
2022-11-28T02:50:04.480Z,5.80
2022-11-28T02:55:09.558Z,5.97
2022-11-28T03:00:28.076Z,5.80
2022-11-28T03:05:43.494Z,6.93
2022-11-28T03:10:53.035Z,6.77
2022-11-28T03:16:18.215Z,7.00
2022-11-28T03:21:30.840Z,7.00
2022-11-28T03:26:41.016Z,6.20
2022-11-28T03:31:50.537Z,6.47
2022-11-28T03:36:59.226Z,6.27
2022-11-28T03:42:07.131Z,6.57
2022-11-28T03:47:11.702Z,6.73
2022-11-28T03:52:19.839Z,7.30
2022-11-28T03:57:31.065Z,7.13
2022-11-28T04:02:40.094Z,7.30
2022-11-28T04:07:48.241Z,8.00
2022-11-28T04:12:56.404Z,7.47
2022-11-28T04:18:01.843Z,7.13
2022-11-28T04:23:11.510Z,7.63
2022-11-28T04:28:18.948Z,8.30
2022-11-28T04:33:25.943Z,8.27
2022-11-28T04:38:32.227Z,8.30
2022-11-28T04:43:40.579Z,8.43
2022-11-28T04:48:44.083Z,8.13
2022-11-28T04:53:53.527Z,8.00
2022-11-28T04:58:57.615Z,7.97
2022-11-28T05:04:00.945Z,8.33
2022-11-28T05:09:05.589Z,8.37
2022-11-28T05:14:08.901Z,7.90
2022-11-28T05:19:12.028Z,8.37
2022-11-28T05:24:17.540Z,8.27
2022-11-28T05:29:20.624Z,8.23
2022-11-28T05:34:26.161Z,8.30
2022-11-28T05:39:30.840Z,9.43
2022-11-28T05:44:34.631Z,9.23
2022-11-28T05:49:40.657Z,9.33
2022-11-28T05:54:45.370Z,9.97
2022-11-28T05:59:48.772Z,9.77
2022-11-28T06:04:52.040Z,10.40
2022-11-28T06:09:56.511Z,10.07
2022-11-28T06:14:59.543Z,10.00
2022-11-28T06:20:02.752Z,12.30
2022-11-28T06:25:07.456Z,13.20
2022-11-28T06:30:10.892Z,13.30
2022-11-28T06:35:13.852Z,14.20
2022-11-28T06:40:18.293Z,14.33
2022-11-28T06:45:21.249Z,15.90
2022-11-28T06:50:24.304Z,15.50
2022-11-28T06:55:30.727Z,19.13
2022-11-28T07:00:34.108Z,17.40
2022-11-28T07:05:37.238Z,18.57
2022-11-28T07:10:41.705Z,19.30
2022-11-28T07:15:52.080Z,21.77
2022-11-28T07:20:55.696Z,20.33
2022-11-28T07:26:04.835Z,23.03
2022-11-28T07:31:10.781Z,25.23
2022-11-28T07:36:16.299Z,24.27
2022-11-28T07:41:26.045Z,26.37
2022-11-28T07:46:31.996Z,20.83
2022-11-28T07:51:35.714Z,23.27
2022-11-28T07:57:10.888Z,22.07
2022-11-28T08:02:03.806Z,27.23
2022-11-28T08:07:06.806Z,25.70
2022-11-28T08:12:11.183Z,26.00
2022-11-28T08:17:14.195Z,28.00
2022-11-28T08:22:17.423Z,24.73
2022-11-28T08:27:21.820Z,28.73
2022-11-28T08:32:25.933Z,27.53
2022-11-28T08:37:29.674Z,29.30
2022-11-28T08:42:34.180Z,28.13
2022-11-28T08:47:37.147Z,31.73
2022-11-28T08:52:40.108Z,30.37
2022-11-28T08:57:44.410Z,28.23
2022-11-28T09:02:47.417Z,27.20
2022-11-28T09:07:50.592Z,29.50
2022-11-28T09:12:55.542Z,28.10
2022-11-28T09:18:00.769Z,28.17
2022-11-28T09:23:03.826Z,26.00
2022-11-28T09:28:08.478Z,28.00
2022-11-28T09:33:13.336Z,29.13
2022-11-28T09:38:16.412Z,28.00
2022-11-28T09:43:32.048Z,25.43
2022-11-28T09:48:37.932Z,24.07
2022-11-28T09:53:47.225Z,26.63
2022-11-28T09:58:55.447Z,23.83
2022-11-28T10:04:04.540Z,23.07
2022-11-28T10:09:30.241Z,21.07
2022-11-28T10:15:09.840Z,19.33
2022-11-28T10:20:18.562Z,20.70
2022-11-28T10:25:25.887Z,20.63
2022-11-28T10:30:35.133Z,20.97
2022-11-28T10:35:45.672Z,20.67
2022-11-28T10:40:54.847Z,21.67
2022-11-28T10:46:18.229Z,23.17
2022-11-28T10:51:33.592Z,23.27
2022-11-28T10:56:48.840Z,23.17
2022-11-28T11:01:54.177Z,21.80
2022-11-28T11:07:20.977Z,25.77
2022-11-28T11:12:31.735Z,27.70
2022-11-28T11:17:37.951Z,25.73
2022-11-28T11:22:40.971Z,29.60
2022-11-28T11:27:50.168Z,29.63
2022-11-28T11:32:55.807Z,29.17
2022-11-28T11:38:17.781Z,33.47
2022-11-28T11:43:29.430Z,31.77
2022-11-28T11:48:38.426Z,30.93
2022-11-28T11:53:41.387Z,28.40
2022-11-28T11:58:47.943Z,32.60
2022-11-28T12:04:05.608Z,27.87
2022-11-28T12:09:26.416Z,28.50
2022-11-28T12:14:32.597Z,28.27
2022-11-28T12:19:44.337Z,25.73
2022-11-28T12:24:57.270Z,25.50
2022-11-28T12:30:21.467Z,26.07
2022-11-28T12:35:39.013Z,25.40
2022-11-28T12:40:55.553Z,26.77
2022-11-28T12:46:06.854Z,25.43
2022-11-28T12:51:21.957Z,26.00
2022-11-28T12:56:37.030Z,23.80
2022-11-28T13:01:56.061Z,23.73
2022-11-28T13:07:10.294Z,26.73
2022-11-28T13:12:24.214Z,23.83
2022-11-28T13:17:43.156Z,24.10
2022-11-28T13:23:04.133Z,22.27
2022-11-28T13:28:18.683Z,21.63
2022-11-28T13:33:40.456Z,22.43
2022-11-28T13:39:11.799Z,21.17
2022-11-28T13:44:23.327Z,21.97
2022-11-28T13:49:29.653Z,22.43
2022-11-28T13:54:44.730Z,22.70
2022-11-28T13:59:50.533Z,20.50
2022-11-28T14:04:54.194Z,21.63
2022-11-28T14:10:24.463Z,22.10
2022-11-28T14:15:33.314Z,22.43
2022-11-28T14:20:47.201Z,22.47
2022-11-28T14:25:53.615Z,20.40
2022-11-28T14:31:06.540Z,19.63
2022-11-28T14:36:34.912Z,19.50
2022-11-28T14:42:43.862Z,19.97
2022-11-28T14:47:43.020Z,19.50
2022-11-28T14:52:47.963Z,19.83
2022-11-28T14:58:00.803Z,19.07
2022-11-28T15:03:20.569Z,19.60
2022-11-28T15:08:39.374Z,19.80
2022-11-28T15:14:01.284Z,19.00
2022-11-28T15:19:12.790Z,20.67
2022-11-28T15:24:30.840Z,20.00
2022-11-28T15:29:34.329Z,18.70
2022-11-28T15:34:40.055Z,19.63
2022-11-28T15:39:46.559Z,20.23
2022-11-28T15:44:56.452Z,17.63
2022-11-28T15:50:04.030Z,21.10
2022-11-28T15:55:16.950Z,19.07
2022-11-28T16:00:22.053Z,17.83
2022-11-28T16:05:26.667Z,16.63
2022-11-28T16:10:33.693Z,17.57
2022-11-28T16:15:37.806Z,16.20
2022-11-28T16:20:42.752Z,15.33
2022-11-28T16:25:47.058Z,13.17
2022-11-28T16:30:51.235Z,14.03
2022-11-28T16:36:19.869Z,15.23
2022-11-28T16:41:25.428Z,14.43
2022-11-28T16:46:34.736Z,16.10
2022-11-28T16:51:41.369Z,17.17
2022-11-28T16:56:45.481Z,14.30
2022-11-28T17:01:52.636Z,15.20
2022-11-28T17:06:58.989Z,12.60
2022-11-28T17:12:05.304Z,13.40
2022-11-28T17:17:14.422Z,12.07
2022-11-28T17:22:22.143Z,12.67
2022-11-28T17:27:25.345Z,16.03
2022-11-28T17:32:28.427Z,18.10
2022-11-28T17:37:32.880Z,15.53
2022-11-28T17:42:35.887Z,16.00
2022-11-28T17:47:38.926Z,16.53
2022-11-28T17:52:43.340Z,19.17
2022-11-28T17:57:46.689Z,19.80
2022-11-28T18:02:52.154Z,20.23
2022-11-28T18:07:56.721Z,19.27
2022-11-28T18:13:02.246Z,22.63
2022-11-28T18:18:07.272Z,23.67
2022-11-28T18:23:13.204Z,22.10
2022-11-28T18:28:18.969Z,21.77
2022-11-28T18:33:24.035Z,21.77
2022-11-28T18:38:28.626Z,19.37
2022-11-28T18:43:31.697Z,20.93
2022-11-28T18:48:34.956Z,19.60
2022-11-28T18:53:39.740Z,19.63
2022-11-28T18:58:45.838Z,21.73
2022-11-28T19:03:51.062Z,20.73
2022-11-28T19:08:58.464Z,20.43
2022-11-28T19:14:01.822Z,21.50
2022-11-28T19:19:06.845Z,22.90
2022-11-28T19:24:13.412Z,22.67
2022-11-28T19:29:17.159Z,20.23
2022-11-28T19:34:20.333Z,18.87
2022-11-28T19:39:26.711Z,20.57
2022-11-28T19:44:30.739Z,21.20
2022-11-28T19:49:34.462Z,18.17
2022-11-28T19:54:39.553Z,21.03
2022-11-28T19:59:43.866Z,19.50
2022-11-28T20:04:47.062Z,22.53
2022-11-28T20:09:51.901Z,22.93
2022-11-28T20:14:55.048Z,21.97
2022-11-28T20:19:58.697Z,19.53
2022-11-28T20:25:03.362Z,19.03
2022-11-28T20:30:07.872Z,20.90
2022-11-28T20:35:11.404Z,22.33
2022-11-28T20:40:16.102Z,20.10
2022-11-28T20:45:19.117Z,17.03
2022-11-28T20:50:22.381Z,16.30
2022-11-28T20:55:28.076Z,14.17
2022-11-28T21:00:31.108Z,13.87
2022-11-28T21:05:36.130Z,16.33
2022-11-28T21:10:40.688Z,15.07
2022-11-28T21:15:46.168Z,20.20
2022-11-28T21:20:49.265Z,20.37
2022-11-28T21:25:53.625Z,26.03
2022-11-28T21:30:57.108Z,19.40
2022-11-28T21:36:01.132Z,16.00
2022-11-28T21:41:05.604Z,22.93
2022-11-28T21:46:09.059Z,14.50
2022-11-28T21:51:17.210Z,12.77
2022-11-28T21:56:22.015Z,14.07
2022-11-28T22:01:25.087Z,15.63
2022-11-28T22:06:28.938Z,15.60
2022-11-28T22:11:33.711Z,19.87
2022-11-28T22:16:36.992Z,14.53
2022-11-28T22:21:52.291Z,24.13
2022-11-28T22:26:59.788Z,18.53
2022-11-28T22:32:04.527Z,20.60
2022-11-28T22:37:11.168Z,18.43
2022-11-28T22:42:15.741Z,19.37
2022-11-28T22:47:19.136Z,15.67
2022-11-28T22:52:22.736Z,19.47
2022-11-28T22:57:27.138Z,15.77
2022-11-28T23:02:33.717Z,16.33
2022-11-28T23:07:38.830Z,21.50
2022-11-28T23:12:44.074Z,14.57
2022-11-28T23:17:47.589Z,21.37
2022-11-28T23:22:55.213Z,17.03
2022-11-28T23:28:13.568Z,17.13
2022-11-28T23:33:17.213Z,19.70
2022-11-28T23:38:20.297Z,17.80
2022-11-28T23:43:24.939Z,20.97
2022-11-28T23:48:27.988Z,18.93
2022-11-28T23:53:31.249Z,21.37
2022-11-28T23:58:36.129Z,17.70
